createdAt,value
2023-04-19T00:00:21.800Z,12.40
2023-04-19T00:02:52.691Z,12.30
2023-04-19T00:05:24.812Z,10.87
2023-04-19T00:07:54.967Z,11.03
2023-04-19T00:10:24.912Z,11.47
2023-04-19T00:12:55.213Z,12.17
2023-04-19T00:15:27.686Z,11.70
2023-04-19T00:17:58.023Z,11.83
2023-04-19T00:20:28.032Z,12.60
2023-04-19T00:22:58.983Z,11.93
2023-04-19T00:25:30.978Z,11.90
2023-04-19T00:28:00.806Z,11.40
2023-04-19T00:30:33.405Z,13.03
2023-04-19T00:33:03.443Z,11.43
2023-04-19T00:35:33.403Z,12.70
2023-04-19T00:38:03.748Z,12.47
2023-04-19T00:40:35.059Z,12.53
2023-04-19T00:43:04.971Z,12.20
2023-04-19T00:45:38.863Z,12.00
2023-04-19T00:48:09.258Z,12.60
2023-04-19T00:50:39.596Z,11.97
2023-04-19T00:53:10.820Z,12.10
2023-04-19T00:55:42.601Z,11.70
2023-04-19T00:58:13.005Z,11.50
2023-04-19T01:00:46.040Z,10.97
2023-04-19T01:03:17.220Z,11.10
2023-04-19T01:05:47.470Z,11.40
2023-04-19T01:08:17.388Z,11.13
2023-04-19T01:10:47.356Z,11.77
2023-04-19T01:13:17.192Z,11.60
2023-04-19T01:15:49.967Z,11.80
2023-04-19T01:18:20.053Z,11.50
2023-04-19T01:20:49.897Z,11.57
2023-04-19T01:23:22.553Z,11.77
2023-04-19T01:25:52.876Z,11.93
2023-04-19T01:28:22.906Z,12.27
2023-04-19T01:30:54.400Z,11.43
2023-04-19T01:33:24.696Z,11.90
2023-04-19T01:35:54.870Z,11.30
2023-04-19T01:38:27.422Z,12.13
2023-04-19T01:40:57.836Z,11.10
2023-04-19T01:43:27.690Z,10.93
2023-04-19T01:45:57.985Z,11.20
2023-04-19T01:48:28.067Z,11.03
2023-04-19T01:50:58.340Z,11.80
2023-04-19T01:53:31.145Z,11.43
2023-04-19T01:56:01.140Z,11.23
2023-04-19T01:58:31.108Z,11.40
2023-04-19T02:01:01.070Z,11.23
2023-04-19T02:03:31.221Z,11.57
2023-04-19T02:06:01.453Z,11.60
2023-04-19T02:08:34.549Z,11.13
2023-04-19T02:11:09.016Z,11.93
2023-04-19T02:13:39.162Z,10.40
2023-04-19T02:16:10.316Z,11.13
2023-04-19T02:18:40.900Z,12.17
2023-04-19T02:21:12.407Z,11.00
2023-04-19T02:23:44.930Z,10.60
2023-04-19T02:26:14.830Z,11.23
2023-04-19T02:28:44.724Z,10.50
2023-04-19T02:31:14.834Z,10.13
2023-04-19T02:33:46.937Z,9.93
2023-04-19T02:36:20.154Z,10.03
2023-04-19T02:38:52.675Z,9.63
2023-04-19T02:41:24.116Z,10.13
2023-04-19T02:43:54.159Z,8.93
2023-04-19T02:46:24.237Z,9.60
2023-04-19T02:48:54.324Z,8.63
2023-04-19T02:51:24.195Z,9.93
2023-04-19T02:53:56.801Z,8.73
2023-04-19T02:56:26.750Z,8.67
2023-04-19T02:58:57.602Z,8.70
2023-04-19T03:01:27.577Z,7.27
2023-04-19T03:03:57.700Z,7.93
2023-04-19T03:06:28.163Z,8.03
2023-04-19T03:09:01.046Z,6.83
2023-04-19T03:11:30.927Z,8.37
2023-04-19T03:14:00.981Z,7.67
2023-04-19T03:16:30.822Z,7.80
2023-04-19T03:19:00.818Z,7.60
2023-04-19T03:21:30.889Z,6.90
2023-04-19T03:24:04.175Z,6.93
2023-04-19T03:26:34.165Z,7.40
2023-04-19T03:29:04.782Z,7.00
2023-04-19T03:31:34.761Z,7.13
2023-04-19T03:34:04.899Z,6.97
2023-04-19T03:36:35.043Z,7.53
2023-04-19T03:39:08.917Z,6.20
2023-04-19T03:41:38.875Z,6.90
2023-04-19T03:44:08.776Z,6.67
2023-04-19T03:46:38.825Z,7.23
2023-04-19T03:49:08.893Z,6.70
2023-04-19T03:51:38.924Z,6.47
2023-04-19T03:54:11.719Z,6.03
2023-04-19T03:56:41.542Z,5.37
2023-04-19T03:59:12.632Z,5.83
2023-04-19T04:01:42.852Z,6.10
2023-04-19T04:04:15.944Z,5.83
2023-04-19T04:06:46.236Z,6.50
2023-04-19T04:09:18.827Z,4.90
2023-04-19T04:11:49.121Z,5.80
2023-04-19T04:14:19.050Z,5.27
2023-04-19T04:16:49.262Z,5.70
2023-04-19T04:19:20.024Z,4.90
2023-04-19T04:21:51.245Z,5.60
2023-04-19T04:24:24.201Z,5.30
2023-04-19T04:26:54.695Z,4.60
2023-04-19T04:29:24.588Z,4.40
2023-04-19T04:31:54.682Z,4.80
2023-04-19T04:34:24.864Z,4.63
2023-04-19T04:36:55.126Z,4.33
2023-04-19T04:39:27.592Z,4.73
2023-04-19T04:41:57.972Z,5.13
2023-04-19T04:44:28.396Z,4.67
2023-04-19T04:46:58.351Z,5.00
2023-04-19T04:49:28.276Z,4.60
2023-04-19T04:51:58.200Z,4.83
2023-04-19T04:54:30.862Z,4.83
2023-04-19T04:57:02.956Z,4.73
2023-04-19T04:59:33.103Z,5.20
2023-04-19T05:02:03.159Z,5.07
2023-04-19T05:04:33.135Z,4.70
2023-04-19T05:07:03.126Z,4.83
2023-04-19T05:09:35.710Z,4.80
2023-04-19T05:12:05.745Z,4.73
2023-04-19T05:14:35.807Z,5.73
2023-04-19T05:17:07.166Z,5.13
2023-04-19T05:19:37.406Z,5.03
2023-04-19T05:22:07.319Z,4.90
2023-04-19T05:24:42.421Z,5.57
2023-04-19T05:27:12.585Z,5.47
2023-04-19T05:29:42.794Z,5.13
2023-04-19T05:32:12.917Z,5.90
2023-04-19T05:34:42.878Z,5.13
2023-04-19T05:37:15.538Z,5.30
2023-04-19T05:39:48.003Z,5.70
2023-04-19T05:42:17.872Z,5.63
2023-04-19T05:44:47.905Z,5.10
2023-04-19T05:47:18.297Z,5.77
2023-04-19T05:49:50.346Z,5.83
2023-04-19T05:52:20.294Z,6.13
2023-04-19T05:54:52.853Z,5.30
2023-04-19T05:57:22.876Z,5.90
2023-04-19T05:59:52.965Z,6.13
2023-04-19T06:02:23.618Z,5.63
2023-04-19T06:04:53.605Z,5.13
2023-04-19T06:07:32.677Z,5.80
2023-04-19T06:10:07.563Z,5.50
2023-04-19T06:12:37.469Z,5.23
2023-04-19T06:15:09.536Z,5.40
2023-04-19T06:17:39.385Z,5.90
2023-04-19T06:20:12.961Z,5.20
2023-04-19T06:22:45.781Z,5.53
2023-04-19T06:25:18.552Z,5.13
2023-04-19T06:27:48.525Z,5.30
2023-04-19T06:30:21.425Z,4.87
2023-04-19T06:32:51.390Z,5.37
2023-04-19T06:35:21.747Z,4.87
2023-04-19T06:37:52.084Z,5.10
2023-04-19T06:40:25.080Z,5.50
2023-04-19T06:42:55.816Z,4.67
2023-04-19T06:45:26.435Z,4.70
2023-04-19T06:47:56.976Z,4.47
2023-04-19T06:50:27.296Z,4.73
2023-04-19T06:52:57.344Z,4.57
2023-04-19T06:55:30.056Z,4.53
2023-04-19T06:57:59.957Z,5.13
2023-04-19T07:00:30.260Z,4.73
2023-04-19T07:03:00.895Z,4.80
2023-04-19T07:05:31.174Z,4.60
2023-04-19T07:08:03.945Z,4.80
2023-04-19T07:10:36.487Z,4.97
2023-04-19T07:13:08.514Z,4.50
2023-04-19T07:15:38.747Z,5.30
2023-04-19T07:18:10.630Z,5.07
2023-04-19T07:20:44.765Z,4.60
2023-04-19T07:23:14.796Z,5.30
2023-04-19T07:25:47.768Z,4.77
2023-04-19T07:28:17.717Z,4.00
2023-04-19T07:30:47.966Z,4.17
2023-04-19T07:33:17.924Z,5.00
2023-04-19T07:35:47.874Z,4.80
2023-04-19T07:38:18.147Z,4.10
2023-04-19T07:40:50.837Z,4.27
2023-04-19T07:43:21.042Z,4.60
2023-04-19T07:45:51.097Z,5.10
2023-04-19T07:48:21.106Z,4.60
2023-04-19T07:50:51.834Z,4.87
2023-04-19T07:53:21.770Z,4.20
2023-04-19T07:55:54.357Z,4.30
2023-04-19T07:58:24.453Z,4.40
2023-04-19T08:00:54.438Z,3.90
2023-04-19T08:03:24.587Z,4.17
2023-04-19T08:05:54.740Z,3.70
2023-04-19T08:08:26.116Z,4.03
2023-04-19T08:11:01.816Z,3.77
2023-04-19T08:13:32.051Z,3.83
2023-04-19T08:18:36.485Z,4.00
2023-04-19T08:21:09.791Z,4.10
2023-04-19T08:23:47.769Z,3.80
2023-04-19T08:26:21.097Z,3.20
2023-04-19T08:28:51.601Z,3.40
2023-04-19T08:31:22.364Z,3.50
2023-04-19T08:33:52.335Z,3.80
2023-04-19T08:36:35.439Z,3.83
2023-04-19T08:39:17.705Z,3.63
2023-04-19T08:42:06.897Z,3.60
2023-04-19T08:44:59.093Z,4.13
2023-04-19T08:47:34.058Z,3.80
2023-04-19T08:50:17.547Z,3.57
2023-04-19T08:53:02.744Z,3.23
2023-04-19T08:55:40.917Z,3.00
2023-04-19T08:58:28.601Z,3.10
2023-04-19T09:01:03.189Z,3.30
2023-04-19T09:03:40.913Z,3.13
2023-04-19T09:06:17.855Z,2.97
2023-04-19T09:08:48.185Z,3.03
2023-04-19T09:11:18.322Z,3.00
2023-04-19T09:13:53.346Z,3.20
2023-04-19T09:16:30.917Z,2.57
2023-04-19T09:21:39.094Z,3.13
2023-04-19T09:24:09.975Z,3.20
2023-04-19T09:26:40.228Z,2.92
2023-04-19T09:29:15.170Z,3.00
2023-04-19T09:32:00.586Z,2.73
2023-04-19T09:34:31.256Z,2.00
2023-04-19T09:37:12.044Z,2.80
2023-04-19T09:39:47.472Z,2.70
2023-04-19T09:42:24.155Z,2.58
2023-04-19T09:45:28.402Z,2.72
2023-04-19T09:48:07.793Z,2.55
2023-04-19T09:50:51.364Z,2.70
2023-04-19T09:53:30.026Z,2.10
2023-04-19T09:56:02.376Z,2.72
2023-04-19T10:01:14.781Z,3.05
2023-04-19T10:03:47.877Z,2.20
2023-04-19T10:08:53.873Z,2.20
2023-04-19T10:11:30.072Z,2.67
2023-04-19T10:14:04.773Z,2.28
2023-04-19T10:16:41.465Z,2.38
2023-04-19T10:19:13.674Z,2.53
2023-04-19T10:21:46.812Z,2.80
2023-04-19T10:24:18.691Z,2.50
2023-04-19T10:27:12.450Z,2.58
2023-04-19T10:29:58.920Z,3.38
2023-04-19T10:32:41.382Z,2.40
2023-04-19T10:35:14.541Z,3.10
2023-04-19T10:37:44.881Z,2.92
2023-04-19T10:40:15.400Z,2.60
2023-04-19T10:43:15.264Z,3.10
2023-04-19T10:45:45.654Z,2.88
2023-04-19T10:48:41.433Z,2.80
2023-04-19T10:51:19.343Z,2.50
2023-04-19T10:53:54.609Z,2.80
2023-04-19T10:56:47.818Z,2.42
2023-04-19T10:59:24.909Z,2.95
2023-04-19T11:01:59.931Z,2.08
2023-04-19T11:05:14.617Z,2.47
2023-04-19T11:07:48.913Z,2.42
2023-04-19T11:10:31.878Z,2.60
2023-04-19T11:13:02.242Z,3.08
2023-04-19T11:15:32.192Z,2.78
2023-04-19T11:18:12.714Z,3.42
2023-04-19T11:20:46.119Z,4.28
2023-04-19T11:23:21.916Z,2.85
2023-04-19T11:25:55.000Z,3.03
2023-04-19T11:28:24.968Z,2.50
2023-04-19T11:30:56.844Z,2.50
2023-04-19T11:33:28.916Z,2.35
2023-04-19T11:35:58.804Z,2.88
2023-04-19T11:38:34.005Z,2.83
2023-04-19T11:41:04.462Z,3.05
2023-04-19T11:43:40.655Z,2.58
2023-04-19T11:46:12.254Z,2.92
2023-04-19T11:48:43.110Z,2.70
2023-04-19T11:51:13.777Z,3.33
2023-04-19T11:53:46.725Z,3.03
2023-04-19T11:56:18.227Z,3.03
2023-04-19T11:58:50.166Z,3.70
2023-04-19T12:01:24.793Z,3.22
2023-04-19T12:03:56.777Z,3.28
2023-04-19T12:06:28.763Z,3.22
2023-04-19T12:09:01.805Z,3.60
2023-04-19T12:11:50.463Z,3.38
2023-04-19T12:14:23.066Z,3.08
2023-04-19T12:17:11.918Z,3.85
2023-04-19T12:19:47.017Z,3.30
2023-04-19T12:22:20.502Z,3.28
2023-04-19T12:24:56.141Z,3.80
2023-04-19T12:27:26.170Z,3.25
2023-04-19T12:29:56.392Z,3.45
2023-04-19T12:32:26.245Z,3.25
2023-04-19T12:34:56.980Z,3.58
2023-04-19T12:37:26.996Z,3.13
2023-04-19T12:40:00.585Z,3.40
2023-04-19T12:42:30.467Z,3.10
2023-04-19T12:45:00.448Z,3.65
2023-04-19T12:47:30.897Z,3.38
2023-04-19T12:50:02.013Z,3.10
2023-04-19T12:52:31.816Z,3.25
2023-04-19T12:55:04.630Z,3.50
2023-04-19T12:57:34.549Z,3.35
2023-04-19T13:00:05.222Z,3.65
2023-04-19T13:02:37.420Z,3.45
2023-04-19T13:05:08.180Z,3.22
2023-04-19T13:07:38.272Z,2.90
2023-04-19T13:10:12.653Z,3.05
2023-04-19T13:12:43.025Z,2.75
2023-04-19T13:15:13.855Z,3.20
2023-04-19T13:17:43.822Z,3.15
2023-04-19T13:20:17.184Z,3.08
2023-04-19T13:22:47.065Z,2.90
2023-04-19T13:25:19.673Z,3.25
2023-04-19T13:27:49.655Z,3.15
2023-04-19T13:30:19.644Z,3.17
2023-04-19T13:32:49.730Z,3.35
2023-04-19T13:35:19.752Z,4.18
2023-04-19T13:37:51.655Z,3.28
2023-04-19T13:40:24.176Z,3.53
2023-04-19T13:42:54.572Z,3.22
2023-04-19T13:45:24.713Z,3.03
2023-04-19T13:47:54.769Z,3.25
2023-04-19T13:50:24.713Z,3.42
2023-04-19T13:52:54.889Z,3.53
2023-04-19T13:55:30.554Z,3.22
2023-04-19T13:58:00.430Z,3.50
2023-04-19T14:00:30.490Z,3.22
2023-04-19T14:03:03.937Z,2.83
2023-04-19T14:05:33.945Z,3.60
2023-04-19T14:08:03.750Z,3.30
2023-04-19T14:10:37.583Z,3.20
2023-04-19T14:13:07.526Z,2.63
2023-04-19T14:15:40.283Z,2.85
2023-04-19T14:18:10.313Z,2.95
2023-04-19T14:20:40.399Z,3.08
2023-04-19T14:23:10.350Z,3.40
2023-04-19T14:25:42.909Z,2.90
2023-04-19T14:28:15.300Z,3.10
2023-04-19T14:30:45.272Z,2.70
2023-04-19T14:33:15.236Z,3.28
2023-04-19T14:35:45.640Z,2.88
2023-04-19T14:38:15.820Z,2.88
2023-04-19T14:40:49.810Z,2.80
2023-04-19T14:43:19.746Z,2.67
2023-04-19T14:45:51.524Z,3.15
2023-04-19T14:48:22.356Z,3.17
2023-04-19T14:50:52.498Z,2.65
2023-04-19T14:53:22.718Z,2.58
2023-04-19T14:55:55.760Z,2.33
2023-04-19T14:58:25.782Z,3.25
2023-04-19T15:00:55.998Z,2.22
2023-04-19T15:03:26.297Z,2.58
2023-04-19T15:05:56.403Z,2.35
2023-04-19T15:08:30.734Z,2.60
2023-04-19T15:11:03.658Z,2.70
2023-04-19T15:13:34.168Z,2.83
2023-04-19T15:16:04.169Z,2.88
2023-04-19T15:18:34.118Z,3.00
2023-04-19T15:21:05.498Z,6.35
2023-04-19T15:23:35.388Z,3.05
2023-04-19T15:26:08.051Z,2.40
2023-04-19T15:28:38.881Z,2.70
2023-04-19T15:31:10.718Z,3.10
2023-04-19T15:33:41.217Z,3.53
2023-04-19T15:36:11.215Z,2.35
2023-04-19T15:38:43.856Z,2.40
2023-04-19T15:41:16.765Z,2.72
2023-04-19T15:43:46.725Z,2.80
2023-04-19T15:46:17.652Z,3.05
2023-04-19T15:48:48.682Z,2.70
2023-04-19T15:51:18.731Z,2.42
2023-04-19T15:53:48.732Z,2.72
2023-04-19T15:56:21.494Z,2.55
2023-04-19T15:58:51.493Z,2.35
2023-04-19T16:01:23.140Z,2.50
2023-04-19T16:03:53.421Z,2.20
2023-04-19T16:06:23.533Z,3.15
2023-04-19T16:08:53.762Z,2.42
2023-04-19T16:11:26.732Z,1.90
2023-04-19T16:13:56.915Z,2.35
2023-04-19T16:16:27.186Z,1.90
2023-04-19T16:18:57.460Z,2.00
2023-04-19T16:21:28.779Z,2.38
2023-04-19T16:24:00.949Z,2.05
2023-04-19T16:26:33.845Z,1.98
2023-04-19T16:29:05.613Z,2.08
2023-04-19T16:31:35.749Z,1.95
2023-04-19T16:34:08.708Z,1.85
2023-04-19T16:36:38.637Z,2.00
2023-04-19T16:39:08.488Z,3.53
2023-04-19T16:41:41.278Z,2.03
2023-04-19T16:44:11.253Z,2.00
2023-04-19T16:46:41.274Z,3.20
2023-04-19T16:49:12.205Z,1.88
2023-04-19T16:51:42.129Z,1.95
2023-04-19T16:54:12.022Z,1.50
2023-04-19T16:56:44.669Z,2.50
2023-04-19T16:59:15.066Z,2.40
2023-04-19T17:01:45.166Z,2.00
2023-04-19T17:04:15.423Z,2.13
2023-04-19T17:06:45.409Z,2.10
2023-04-19T17:09:15.603Z,1.92
2023-04-19T17:11:48.245Z,2.30
2023-04-19T17:14:18.468Z,1.83
2023-04-19T17:16:48.483Z,2.28
2023-04-19T17:19:19.012Z,1.83
2023-04-19T17:21:49.792Z,1.80
2023-04-19T17:24:19.974Z,2.10
2023-04-19T17:26:52.483Z,2.15
2023-04-19T17:29:22.360Z,2.37
2023-04-19T17:31:52.364Z,2.17
2023-04-19T17:34:22.674Z,2.20
2023-04-19T17:36:52.636Z,2.00
2023-04-19T17:39:22.774Z,2.07
2023-04-19T17:41:55.223Z,1.90
2023-04-19T17:44:25.649Z,2.20
2023-04-19T17:46:55.598Z,2.33
2023-04-19T17:49:27.259Z,1.90
2023-04-19T17:51:58.264Z,2.00
2023-04-19T17:54:28.207Z,2.20
2023-04-19T17:57:02.707Z,2.70
2023-04-19T17:59:32.868Z,2.20
2023-04-19T18:02:02.908Z,2.30
2023-04-19T18:04:35.145Z,2.50
2023-04-19T18:07:05.175Z,2.37
2023-04-19T18:09:35.191Z,2.80
2023-04-19T18:12:08.309Z,2.60
2023-04-19T18:14:38.976Z,2.90
2023-04-19T18:17:09.126Z,2.77
2023-04-19T18:19:39.901Z,2.80
2023-04-19T18:22:09.939Z,2.77
2023-04-19T18:24:40.992Z,2.73
2023-04-19T18:27:13.796Z,2.80
2023-04-19T18:29:43.697Z,2.57
2023-04-19T18:32:13.713Z,2.63
2023-04-19T18:34:43.608Z,2.80
2023-04-19T18:37:18.848Z,3.30
2023-04-19T18:39:49.059Z,2.57
2023-04-19T18:42:21.669Z,3.17
2023-04-19T18:44:54.213Z,3.30
2023-04-19T18:47:24.682Z,3.30
2023-04-19T18:52:27.641Z,3.20
2023-04-19T18:54:58.623Z,2.90
2023-04-19T18:57:34.558Z,3.43
2023-04-19T19:00:06.724Z,3.40
2023-04-19T19:02:38.440Z,3.47
2023-04-19T19:05:13.758Z,3.07
2023-04-19T19:07:45.416Z,3.57
2023-04-19T19:10:20.979Z,3.03
2023-04-19T19:12:55.166Z,2.70
2023-04-19T19:15:25.144Z,3.30
2023-04-19T19:17:55.234Z,3.57
2023-04-19T19:20:26.258Z,3.13
2023-04-19T19:22:56.110Z,3.57
2023-04-19T19:25:26.259Z,3.00
2023-04-19T19:28:06.144Z,2.83
2023-04-19T19:30:45.063Z,3.47
2023-04-19T19:33:16.674Z,3.20
2023-04-19T19:35:46.718Z,3.27
2023-04-19T19:38:16.644Z,3.30
2023-04-19T19:41:22.542Z,3.20
2023-04-19T19:43:40.189Z,3.30
2023-04-19T19:46:10.945Z,3.50
2023-04-19T19:48:43.058Z,3.37
2023-04-19T19:51:42.231Z,3.60
2023-04-19T19:54:02.958Z,3.27
2023-04-19T19:56:34.806Z,3.07
2023-04-19T19:59:07.479Z,3.33
2023-04-19T20:01:37.426Z,3.10
2023-04-19T20:04:07.784Z,3.00
2023-04-19T20:07:24.718Z,3.37
2023-04-19T20:09:28.135Z,3.23
2023-04-19T20:11:58.045Z,3.80
2023-04-19T20:14:31.199Z,3.43
2023-04-19T20:17:01.273Z,3.13
2023-04-19T20:19:31.253Z,3.10
2023-04-19T20:22:04.126Z,3.37
2023-04-19T20:24:34.397Z,3.30
2023-04-19T20:27:04.466Z,4.07
2023-04-19T20:29:37.051Z,2.80
2023-04-19T20:32:08.883Z,2.90
2023-04-19T20:34:40.328Z,3.13
2023-04-19T20:37:10.507Z,2.80
2023-04-19T20:39:42.502Z,3.93
2023-04-19T20:42:12.529Z,3.23
2023-04-19T20:44:45.119Z,3.20
2023-04-19T20:47:16.178Z,2.93
2023-04-19T20:49:46.192Z,3.07
2023-04-19T20:52:16.414Z,2.73
2023-04-19T20:54:46.321Z,3.30
2023-04-19T20:57:16.281Z,3.00
2023-04-19T20:59:49.251Z,2.80
2023-04-19T21:02:19.433Z,3.30
2023-04-19T21:04:49.351Z,3.17
2023-04-19T21:07:20.217Z,3.07
2023-04-19T21:09:50.098Z,3.20
2023-04-19T21:12:20.452Z,3.23
2023-04-19T21:14:53.106Z,2.97
2023-04-19T21:17:23.531Z,3.40
2023-04-19T21:19:53.530Z,3.10
2023-04-19T21:22:23.458Z,3.53
2023-04-19T21:24:53.378Z,3.20
2023-04-19T21:27:23.356Z,3.13
2023-04-19T21:29:55.969Z,2.73
2023-04-19T21:32:28.310Z,2.97
2023-04-19T21:34:58.690Z,3.23
2023-04-19T21:37:33.949Z,3.07
2023-04-19T21:40:03.870Z,3.03
2023-04-19T21:42:33.822Z,2.93
2023-04-19T21:45:07.087Z,2.93
2023-04-19T21:47:37.014Z,2.53
2023-04-19T21:50:07.655Z,2.80
2023-04-19T21:52:37.634Z,2.63
2023-04-19T21:55:08.759Z,2.83
2023-04-19T21:57:38.758Z,2.90
2023-04-19T22:00:12.614Z,2.80
2023-04-19T22:02:42.583Z,2.90
2023-04-19T22:05:14.092Z,2.70
2023-04-19T22:07:43.909Z,3.13
2023-04-19T22:10:15.126Z,3.10
2023-04-19T22:12:57.429Z,3.07
2023-04-19T22:15:31.780Z,2.83
2023-04-19T22:18:03.255Z,3.00
2023-04-19T22:20:33.962Z,2.73
2023-04-19T22:23:04.024Z,2.97
2023-04-19T22:25:34.153Z,2.80
2023-04-19T22:28:06.104Z,2.90
2023-04-19T22:30:40.069Z,2.63
2023-04-19T22:33:10.272Z,2.93
2023-04-19T22:35:40.453Z,2.97
2023-04-19T22:38:10.528Z,2.97
2023-04-19T22:40:40.891Z,2.90
2023-04-19T22:43:10.917Z,3.07
2023-04-19T22:45:44.801Z,2.97
2023-04-19T22:48:17.468Z,2.93
2023-04-19T22:50:47.604Z,3.00
2023-04-19T22:53:17.446Z,2.90
2023-04-19T22:55:48.522Z,2.87
2023-04-19T22:58:18.538Z,3.30
2023-04-19T23:00:51.082Z,2.40
2023-04-19T23:03:21.106Z,3.03
2023-04-19T23:05:50.976Z,2.70
2023-04-19T23:08:21.110Z,2.40
2023-04-19T23:10:57.195Z,2.47
2023-04-19T23:13:27.014Z,2.63
2023-04-19T23:15:59.727Z,2.60
2023-04-19T23:18:30.196Z,2.80
2023-04-19T23:20:59.995Z,2.97
2023-04-19T23:23:29.859Z,2.73
2023-04-19T23:25:59.792Z,2.60
2023-04-19T23:28:29.680Z,2.77
2023-04-19T23:31:02.189Z,2.30
2023-04-19T23:33:32.130Z,2.93
2023-04-19T23:36:02.106Z,2.83
2023-04-19T23:38:31.954Z,2.97
2023-04-19T23:41:01.868Z,2.70
2023-04-19T23:43:31.874Z,3.20
2023-04-19T23:46:04.471Z,3.20
2023-04-19T23:48:34.797Z,3.03
2023-04-19T23:51:04.691Z,2.77
2023-04-19T23:53:34.528Z,2.70
2023-04-19T23:56:04.668Z,2.63
2023-04-19T23:58:34.479Z,2.80
